sensor_id;sensor_type;location;lat;lon;timestamp;P1;durP1;ratioP1;P2;durP2;ratioP2
36827;SDS011;22766;48.042;11.192;2022-07-23T00:00:17;6.60;;;4.13;;
36827;SDS011;22766;48.042;11.192;2022-07-23T00:02:44;5.85;;;4.05;;
36827;SDS011;22766;48.042;11.192;2022-07-23T00:05:13;6.63;;;4.28;;
36827;SDS011;22766;48.042;11.192;2022-07-23T00:07:40;5.90;;;4.18;;
36827;SDS011;22766;48.042;11.192;2022-07-23T00:10:07;5.97;;;4.15;;
36827;SDS011;22766;48.042;11.192;2022-07-23T00:12:34;10.13;;;4.13;;
36827;SDS011;22766;48.042;11.192;2022-07-23T00:15:02;5.47;;;4.05;;
36827;SDS011;22766;48.042;11.192;2022-07-23T00:17:30;7.28;;;4.00;;
36827;SDS011;22766;48.042;11.192;2022-07-23T00:19:57;5.40;;;3.55;;
36827;SDS011;22766;48.042;11.192;2022-07-23T00:22:27;7.57;;;4.53;;
36827;SDS011;22766;48.042;11.192;2022-07-23T00:24:55;6.03;;;4.28;;
36827;SDS011;22766;48.042;11.192;2022-07-23T00:27:42;6.05;;;4.15;;
36827;SDS011;22766;48.042;11.192;2022-07-23T00:30:10;5.32;;;3.63;;
36827;SDS011;22766;48.042;11.192;2022-07-23T00:32:51;8.57;;;4.30;;
36827;SDS011;22766;48.042;11.192;2022-07-23T00:35:23;6.10;;;4.45;;
36827;SDS011;22766;48.042;11.192;2022-07-23T00:37:51;5.45;;;3.78;;
36827;SDS011;22766;48.042;11.192;2022-07-23T00:40:18;8.07;;;4.68;;
36827;SDS011;22766;48.042;11.192;2022-07-23T00:42:44;12.60;;;5.32;;
36827;SDS011;22766;48.042;11.192;2022-07-23T00:45:11;5.68;;;4.63;;
36827;SDS011;22766;48.042;11.192;2022-07-23T00:47:38;6.82;;;4.47;;
36827;SDS011;22766;48.042;11.192;2022-07-23T00:50:06;6.25;;;3.90;;
36827;SDS011;22766;48.042;11.192;2022-07-23T00:52:34;6.45;;;4.53;;
36827;SDS011;22766;48.042;11.192;2022-07-23T00:55:05;9.15;;;5.03;;
36827;SDS011;22766;48.042;11.192;2022-07-23T00:57:33;8.52;;;4.85;;
36827;SDS011;22766;48.042;11.192;2022-07-23T01:00:00;5.47;;;3.90;;
36827;SDS011;22766;48.042;11.192;2022-07-23T01:02:27;10.35;;;3.38;;
36827;SDS011;22766;48.042;11.192;2022-07-23T01:04:54;5.53;;;3.13;;
36827;SDS011;22766;48.042;11.192;2022-07-23T01:07:21;4.85;;;3.22;;
36827;SDS011;22766;48.042;11.192;2022-07-23T01:09:48;6.28;;;3.30;;
36827;SDS011;22766;48.042;11.192;2022-07-23T01:12:16;5.03;;;3.30;;
36827;SDS011;22766;48.042;11.192;2022-07-23T01:14:43;9.57;;;3.90;;
36827;SDS011;22766;48.042;11.192;2022-07-23T01:17:10;7.50;;;3.55;;
36827;SDS011;22766;48.042;11.192;2022-07-23T01:19:37;8.73;;;3.80;;
36827;SDS011;22766;48.042;11.192;2022-07-23T01:22:05;8.05;;;3.78;;
36827;SDS011;22766;48.042;11.192;2022-07-23T01:24:32;8.90;;;3.67;;
36827;SDS011;22766;48.042;11.192;2022-07-23T01:27:02;8.65;;;3.20;;
36827;SDS011;22766;48.042;11.192;2022-07-23T01:29:34;7.10;;;3.63;;
36827;SDS011;22766;48.042;11.192;2022-07-23T01:32:05;6.35;;;4.18;;
36827;SDS011;22766;48.042;11.192;2022-07-23T01:34:35;6.88;;;3.03;;
36827;SDS011;22766;48.042;11.192;2022-07-23T01:37:01;7.40;;;3.83;;
36827;SDS011;22766;48.042;11.192;2022-07-23T01:39:28;6.93;;;3.97;;
36827;SDS011;22766;48.042;11.192;2022-07-23T01:41:57;5.28;;;3.60;;
36827;SDS011;22766;48.042;11.192;2022-07-23T01:44:25;5.70;;;3.33;;
36827;SDS011;22766;48.042;11.192;2022-07-23T01:46:52;4.93;;;3.50;;
36827;SDS011;22766;48.042;11.192;2022-07-23T01:49:20;6.05;;;4.10;;
36827;SDS011;22766;48.042;11.192;2022-07-23T01:52:11;4.93;;;3.00;;
36827;SDS011;22766;48.042;11.192;2022-07-23T01:54:41;5.10;;;3.33;;
36827;SDS011;22766;48.042;11.192;2022-07-23T01:57:08;5.47;;;2.78;;
36827;SDS011;22766;48.042;11.192;2022-07-23T01:59:35;4.03;;;2.75;;
36827;SDS011;22766;48.042;11.192;2022-07-23T02:02:04;7.65;;;3.20;;
36827;SDS011;22766;48.042;11.192;2022-07-23T02:04:32;6.47;;;2.20;;
36827;SDS011;22766;48.042;11.192;2022-07-23T02:07:02;3.38;;;2.30;;
36827;SDS011;22766;48.042;11.192;2022-07-23T02:09:30;4.22;;;2.50;;
36827;SDS011;22766;48.042;11.192;2022-07-23T02:11:57;4.28;;;2.60;;
36827;SDS011;22766;48.042;11.192;2022-07-23T02:14:24;4.03;;;1.90;;
36827;SDS011;22766;48.042;11.192;2022-07-23T02:16:52;3.42;;;2.00;;
36827;SDS011;22766;48.042;11.192;2022-07-23T02:19:19;3.80;;;2.05;;
36827;SDS011;22766;48.042;11.192;2022-07-23T02:21:45;2.90;;;1.95;;
36827;SDS011;22766;48.042;11.192;2022-07-23T02:24:12;3.47;;;1.80;;
36827;SDS011;22766;48.042;11.192;2022-07-23T02:26:40;2.50;;;1.70;;
36827;SDS011;22766;48.042;11.192;2022-07-23T02:29:07;3.67;;;1.70;;
36827;SDS011;22766;48.042;11.192;2022-07-23T02:31:35;3.72;;;1.83;;
36827;SDS011;22766;48.042;11.192;2022-07-23T02:34:02;3.22;;;1.90;;
36827;SDS011;22766;48.042;11.192;2022-07-23T02:36:29;4.55;;;2.45;;
36827;SDS011;22766;48.042;11.192;2022-07-23T02:38:56;4.03;;;2.83;;
36827;SDS011;22766;48.042;11.192;2022-07-23T02:41:25;6.82;;;3.05;;
36827;SDS011;22766;48.042;11.192;2022-07-23T02:43:52;6.03;;;2.88;;
36827;SDS011;22766;48.042;11.192;2022-07-23T02:46:20;6.50;;;3.40;;
36827;SDS011;22766;48.042;11.192;2022-07-23T02:48:47;6.25;;;3.00;;
36827;SDS011;22766;48.042;11.192;2022-07-23T02:51:13;6.85;;;2.90;;
36827;SDS011;22766;48.042;11.192;2022-07-23T02:53:48;6.03;;;3.30;;
36827;SDS011;22766;48.042;11.192;2022-07-23T02:56:14;6.10;;;3.33;;
36827;SDS011;22766;48.042;11.192;2022-07-23T02:58:41;4.15;;;2.97;;
36827;SDS011;22766;48.042;11.192;2022-07-23T03:01:08;7.68;;;3.33;;
36827;SDS011;22766;48.042;11.192;2022-07-23T03:03:35;5.10;;;3.13;;
36827;SDS011;22766;48.042;11.192;2022-07-23T03:06:01;5.13;;;2.83;;
36827;SDS011;22766;48.042;11.192;2022-07-23T03:08:28;5.55;;;2.67;;
36827;SDS011;22766;48.042;11.192;2022-07-23T03:10:55;7.20;;;2.60;;
36827;SDS011;22766;48.042;11.192;2022-07-23T03:13:22;3.97;;;2.35;;
36827;SDS011;22766;48.042;11.192;2022-07-23T03:15:48;2.90;;;2.13;;
36827;SDS011;22766;48.042;11.192;2022-07-23T03:18:15;3.67;;;2.25;;
36827;SDS011;22766;48.042;11.192;2022-07-23T03:20:42;2.70;;;1.90;;
36827;SDS011;22766;48.042;11.192;2022-07-23T03:23:09;3.00;;;1.73;;
36827;SDS011;22766;48.042;11.192;2022-07-23T03:25:37;3.00;;;2.00;;
36827;SDS011;22766;48.042;11.192;2022-07-23T03:28:04;2.67;;;1.63;;
36827;SDS011;22766;48.042;11.192;2022-07-23T03:30:30;4.30;;;2.17;;
36827;SDS011;22766;48.042;11.192;2022-07-23T03:32:57;3.55;;;2.08;;
36827;SDS011;22766;48.042;11.192;2022-07-23T03:35:24;3.00;;;2.22;;
36827;SDS011;22766;48.042;11.192;2022-07-23T03:38:23;5.15;;;2.17;;
36827;SDS011;22766;48.042;11.192;2022-07-23T03:40:50;3.42;;;2.30;;
36827;SDS011;22766;48.042;11.192;2022-07-23T03:43:16;2.70;;;1.67;;
36827;SDS011;22766;48.042;11.192;2022-07-23T03:45:44;4.80;;;2.53;;
36827;SDS011;22766;48.042;11.192;2022-07-23T03:48:10;4.00;;;2.47;;
36827;SDS011;22766;48.042;11.192;2022-07-23T03:50:37;4.15;;;2.30;;
36827;SDS011;22766;48.042;11.192;2022-07-23T03:53:04;3.92;;;1.88;;
36827;SDS011;22766;48.042;11.192;2022-07-23T03:55:32;3.42;;;2.08;;
36827;SDS011;22766;48.042;11.192;2022-07-23T03:57:59;2.90;;;2.13;;
36827;SDS011;22766;48.042;11.192;2022-07-23T04:00:26;4.38;;;2.22;;
36827;SDS011;22766;48.042;11.192;2022-07-23T04:02:53;4.47;;;2.22;;
36827;SDS011;22766;48.042;11.192;2022-07-23T04:05:19;3.97;;;2.13;;
36827;SDS011;22766;48.042;11.192;2022-07-23T04:07:50;3.50;;;2.17;;
36827;SDS011;22766;48.042;11.192;2022-07-23T04:10:17;3.28;;;2.22;;
36827;SDS011;22766;48.042;11.192;2022-07-23T04:12:44;4.50;;;2.33;;
36827;SDS011;22766;48.042;11.192;2022-07-23T04:15:11;3.83;;;2.10;;
36827;SDS011;22766;48.042;11.192;2022-07-23T04:17:37;3.40;;;2.30;;
36827;SDS011;22766;48.042;11.192;2022-07-23T04:20:05;6.03;;;2.83;;
36827;SDS011;22766;48.042;11.192;2022-07-23T04:22:38;4.00;;;2.13;;
36827;SDS011;22766;48.042;11.192;2022-07-23T04:25:05;4.28;;;2.45;;
36827;SDS011;22766;48.042;11.192;2022-07-23T04:27:32;4.38;;;2.40;;
36827;SDS011;22766;48.042;11.192;2022-07-23T04:29:59;3.47;;;2.30;;
36827;SDS011;22766;48.042;11.192;2022-07-23T04:32:26;4.25;;;2.45;;
36827;SDS011;22766;48.042;11.192;2022-07-23T04:34:53;4.43;;;2.75;;
36827;SDS011;22766;48.042;11.192;2022-07-23T04:37:20;4.53;;;2.80;;
36827;SDS011;22766;48.042;11.192;2022-07-23T04:39:46;3.67;;;2.63;;
36827;SDS011;22766;48.042;11.192;2022-07-23T04:42:13;3.80;;;2.38;;
36827;SDS011;22766;48.042;11.192;2022-07-23T04:44:40;5.40;;;2.22;;
36827;SDS011;22766;48.042;11.192;2022-07-23T04:47:08;2.83;;;1.80;;
36827;SDS011;22766;48.042;11.192;2022-07-23T04:49:34;3.50;;;2.22;;
36827;SDS011;22766;48.042;11.192;2022-07-23T04:52:01;4.10;;;2.20;;
36827;SDS011;22766;48.042;11.192;2022-07-23T04:54:29;3.22;;;2.22;;
36827;SDS011;22766;48.042;11.192;2022-07-23T04:56:55;6.30;;;2.38;;
36827;SDS011;22766;48.042;11.192;2022-07-23T04:59:22;3.78;;;1.92;;
36827;SDS011;22766;48.042;11.192;2022-07-23T05:01:55;3.80;;;2.40;;
36827;SDS011;22766;48.042;11.192;2022-07-23T05:04:21;4.20;;;1.88;;
36827;SDS011;22766;48.042;11.192;2022-07-23T05:06:48;3.28;;;2.13;;
36827;SDS011;22766;48.042;11.192;2022-07-23T05:09:15;2.13;;;1.70;;
36827;SDS011;22766;48.042;11.192;2022-07-23T05:11:42;4.40;;;2.55;;
36827;SDS011;22766;48.042;11.192;2022-07-23T05:14:08;3.80;;;2.50;;
36827;SDS011;22766;48.042;11.192;2022-07-23T05:16:38;3.40;;;2.05;;
36827;SDS011;22766;48.042;11.192;2022-07-23T05:19:11;3.53;;;2.05;;
36827;SDS011;22766;48.042;11.192;2022-07-23T05:21:38;5.05;;;2.65;;
36827;SDS011;22766;48.042;11.192;2022-07-23T05:24:05;3.67;;;2.42;;
36827;SDS011;22766;48.042;11.192;2022-07-23T05:26:32;3.28;;;2.10;;
36827;SDS011;22766;48.042;11.192;2022-07-23T05:28:58;4.75;;;2.45;;
36827;SDS011;22766;48.042;11.192;2022-07-23T05:31:25;4.22;;;2.30;;
36827;SDS011;22766;48.042;11.192;2022-07-23T05:33:52;5.80;;;2.50;;
36827;SDS011;22766;48.042;11.192;2022-07-23T05:36:19;4.90;;;2.85;;
36827;SDS011;22766;48.042;11.192;2022-07-23T05:38:54;5.03;;;2.95;;
36827;SDS011;22766;48.042;11.192;2022-07-23T05:41:21;5.20;;;2.17;;
36827;SDS011;22766;48.042;11.192;2022-07-23T05:43:48;3.22;;;2.03;;
36827;SDS011;22766;48.042;11.192;2022-07-23T05:46:15;4.13;;;2.65;;
36827;SDS011;22766;48.042;11.192;2022-07-23T05:48:46;4.22;;;2.50;;
36827;SDS011;22766;48.042;11.192;2022-07-23T05:51:41;3.80;;;2.45;;
36827;SDS011;22766;48.042;11.192;2022-07-23T05:54:12;6.05;;;3.08;;
36827;SDS011;22766;48.042;11.192;2022-07-23T05:56:39;4.28;;;2.40;;
36827;SDS011;22766;48.042;11.192;2022-07-23T05:59:05;4.63;;;2.70;;
36827;SDS011;22766;48.042;11.192;2022-07-23T06:01:32;5.15;;;3.25;;
36827;SDS011;22766;48.042;11.192;2022-07-23T06:04:08;4.57;;;2.90;;
36827;SDS011;22766;48.042;11.192;2022-07-23T06:06:38;3.15;;;2.60;;
36827;SDS011;22766;48.042;11.192;2022-07-23T06:09:06;6.53;;;2.67;;
36827;SDS011;22766;48.042;11.192;2022-07-23T06:11:34;4.47;;;2.78;;
36827;SDS011;22766;48.042;11.192;2022-07-23T06:14:00;4.13;;;2.50;;
36827;SDS011;22766;48.042;11.192;2022-07-23T06:16:40;4.75;;;3.10;;
36827;SDS011;22766;48.042;11.192;2022-07-23T06:19:06;5.32;;;3.22;;
36827;SDS011;22766;48.042;11.192;2022-07-23T06:21:33;4.38;;;2.72;;
36827;SDS011;22766;48.042;11.192;2022-07-23T06:24:16;6.55;;;2.63;;
36827;SDS011;22766;48.042;11.192;2022-07-23T06:26:45;3.45;;;2.50;;
36827;SDS011;22766;48.042;11.192;2022-07-23T06:29:13;4.75;;;3.38;;
36827;SDS011;22766;48.042;11.192;2022-07-23T06:31:41;4.15;;;3.00;;
36827;SDS011;22766;48.042;11.192;2022-07-23T06:34:08;3.63;;;2.60;;
36827;SDS011;22766;48.042;11.192;2022-07-23T06:36:35;3.83;;;3.08;;
36827;SDS011;22766;48.042;11.192;2022-07-23T06:39:01;5.43;;;2.70;;
36827;SDS011;22766;48.042;11.192;2022-07-23T06:41:29;5.10;;;3.33;;
36827;SDS011;22766;48.042;11.192;2022-07-23T06:43:56;3.97;;;2.50;;
36827;SDS011;22766;48.042;11.192;2022-07-23T06:46:22;4.13;;;2.60;;
36827;SDS011;22766;48.042;11.192;2022-07-23T06:48:50;5.07;;;2.95;;
36827;SDS011;22766;48.042;11.192;2022-07-23T06:51:16;3.72;;;2.75;;
36827;SDS011;22766;48.042;11.192;2022-07-23T06:53:43;4.63;;;3.50;;
36827;SDS011;22766;48.042;11.192;2022-07-23T06:56:10;5.93;;;2.83;;
36827;SDS011;22766;48.042;11.192;2022-07-23T06:58:38;5.13;;;3.20;;
36827;SDS011;22766;48.042;11.192;2022-07-23T07:01:05;6.15;;;2.92;;
36827;SDS011;22766;48.042;11.192;2022-07-23T07:03:32;5.90;;;2.83;;
36827;SDS011;22766;48.042;11.192;2022-07-23T07:05:58;7.07;;;3.45;;
36827;SDS011;22766;48.042;11.192;2022-07-23T07:08:25;5.88;;;3.28;;
36827;SDS011;22766;48.042;11.192;2022-07-23T07:10:52;5.78;;;3.10;;
36827;SDS011;22766;48.042;11.192;2022-07-23T07:13:18;4.63;;;2.80;;
36827;SDS011;22766;48.042;11.192;2022-07-23T07:15:45;5.25;;;3.20;;
36827;SDS011;22766;48.042;11.192;2022-07-23T07:18:12;6.20;;;3.92;;
36827;SDS011;22766;48.042;11.192;2022-07-23T07:20:38;5.90;;;3.22;;
36827;SDS011;22766;48.042;11.192;2022-07-23T07:23:05;4.43;;;3.42;;
36827;SDS011;22766;48.042;11.192;2022-07-23T07:25:32;7.03;;;3.80;;
36827;SDS011;22766;48.042;11.192;2022-07-23T07:27:59;4.82;;;3.17;;
36827;SDS011;22766;48.042;11.192;2022-07-23T07:30:25;5.28;;;3.47;;
36827;SDS011;22766;48.042;11.192;2022-07-23T07:32:59;4.90;;;3.33;;
36827;SDS011;22766;48.042;11.192;2022-07-23T07:35:25;4.78;;;3.30;;
36827;SDS011;22766;48.042;11.192;2022-07-23T07:37:52;5.25;;;3.45;;
36827;SDS011;22766;48.042;11.192;2022-07-23T07:40:19;7.82;;;3.70;;
36827;SDS011;22766;48.042;11.192;2022-07-23T07:42:47;6.00;;;3.28;;
36827;SDS011;22766;48.042;11.192;2022-07-23T07:45:14;5.53;;;3.15;;
36827;SDS011;22766;48.042;11.192;2022-07-23T07:47:41;5.13;;;3.20;;
36827;SDS011;22766;48.042;11.192;2022-07-23T07:50:09;4.60;;;3.10;;
36827;SDS011;22766;48.042;11.192;2022-07-23T07:52:37;4.78;;;3.17;;
36827;SDS011;22766;48.042;11.192;2022-07-23T07:55:05;5.10;;;3.28;;
36827;SDS011;22766;48.042;11.192;2022-07-23T07:57:34;5.03;;;3.50;;
36827;SDS011;22766;48.042;11.192;2022-07-23T08:00:02;5.47;;;3.53;;
36827;SDS011;22766;48.042;11.192;2022-07-23T08:02:47;7.97;;;3.80;;
36827;SDS011;22766;48.042;11.192;2022-07-23T08:05:20;5.60;;;3.17;;
36827;SDS011;22766;48.042;11.192;2022-07-23T08:07:53;6.32;;;3.20;;
36827;SDS011;22766;48.042;11.192;2022-07-23T08:10:20;4.30;;;2.97;;
36827;SDS011;22766;48.042;11.192;2022-07-23T08:12:48;4.68;;;3.03;;
36827;SDS011;22766;48.042;11.192;2022-07-23T08:15:18;5.18;;;4.00;;
36827;SDS011;22766;48.042;11.192;2022-07-23T08:17:46;6.93;;;3.58;;
36827;SDS011;22766;48.042;11.192;2022-07-23T08:20:14;5.68;;;3.67;;
36827;SDS011;22766;48.042;11.192;2022-07-23T08:25:15;6.55;;;3.38;;
36827;SDS011;22766;48.042;11.192;2022-07-23T08:27:43;4.78;;;2.80;;
36827;SDS011;22766;48.042;11.192;2022-07-23T08:30:09;7.68;;;3.33;;
36827;SDS011;22766;48.042;11.192;2022-07-23T08:32:59;3.90;;;2.85;;
36827;SDS011;22766;48.042;11.192;2022-07-23T08:35:29;4.00;;;2.60;;
36827;SDS011;22766;48.042;11.192;2022-07-23T08:38:00;4.75;;;2.88;;
36827;SDS011;22766;48.042;11.192;2022-07-23T08:40:30;4.80;;;3.10;;
36827;SDS011;22766;48.042;11.192;2022-07-23T08:42:58;5.55;;;2.97;;
36827;SDS011;22766;48.042;11.192;2022-07-23T08:45:26;4.57;;;2.78;;
36827;SDS011;22766;48.042;11.192;2022-07-23T08:47:54;9.50;;;2.80;;
36827;SDS011;22766;48.042;11.192;2022-07-23T08:50:23;5.13;;;2.90;;
36827;SDS011;22766;48.042;11.192;2022-07-23T08:52:51;4.75;;;2.88;;
36827;SDS011;22766;48.042;11.192;2022-07-23T08:55:19;5.03;;;3.38;;
36827;SDS011;22766;48.042;11.192;2022-07-23T08:57:48;3.67;;;2.72;;
36827;SDS011;22766;48.042;11.192;2022-07-23T09:00:17;5.82;;;3.38;;
36827;SDS011;22766;48.042;11.192;2022-07-23T09:02:45;5.13;;;2.95;;
36827;SDS011;22766;48.042;11.192;2022-07-23T09:05:13;6.00;;;3.67;;
36827;SDS011;22766;48.042;11.192;2022-07-23T09:13:33;4.18;;;2.70;;
36827;SDS011;22766;48.042;11.192;2022-07-23T09:16:03;5.03;;;3.05;;
36827;SDS011;22766;48.042;11.192;2022-07-23T09:18:34;5.60;;;3.15;;
36827;SDS011;22766;48.042;11.192;2022-07-23T09:21:28;4.82;;;3.10;;
36827;SDS011;22766;48.042;11.192;2022-07-23T09:23:57;3.92;;;2.92;;
36827;SDS011;22766;48.042;11.192;2022-07-23T09:29:00;4.75;;;2.85;;
36827;SDS011;22766;48.042;11.192;2022-07-23T09:31:31;4.13;;;2.55;;
36827;SDS011;22766;48.042;11.192;2022-07-23T09:39:22;3.20;;;2.42;;
36827;SDS011;22766;48.042;11.192;2022-07-23T09:41:52;3.40;;;2.67;;
36827;SDS011;22766;48.042;11.192;2022-07-23T09:44:20;4.07;;;2.70;;
36827;SDS011;22766;48.042;11.192;2022-07-23T09:46:57;5.32;;;2.70;;
36827;SDS011;22766;48.042;11.192;2022-07-23T09:49:24;7.32;;;2.88;;
36827;SDS011;22766;48.042;11.192;2022-07-23T09:56:55;4.80;;;3.00;;
36827;SDS011;22766;48.042;11.192;2022-07-23T09:59:30;4.13;;;2.83;;
36827;SDS011;22766;48.042;11.192;2022-07-23T10:02:00;4.00;;;2.70;;
36827;SDS011;22766;48.042;11.192;2022-07-23T10:04:32;4.65;;;2.85;;
36827;SDS011;22766;48.042;11.192;2022-07-23T10:07:09;3.38;;;2.40;;
36827;SDS011;22766;48.042;11.192;2022-07-23T10:09:55;4.93;;;2.63;;
36827;SDS011;22766;48.042;11.192;2022-07-23T10:12:37;6.13;;;2.55;;
36827;SDS011;22766;48.042;11.192;2022-07-23T10:15:24;4.63;;;2.67;;
36827;SDS011;22766;48.042;11.192;2022-07-23T10:17:51;4.60;;;2.38;;
36827;SDS011;22766;48.042;11.192;2022-07-23T10:20:18;4.22;;;2.42;;
36827;SDS011;22766;48.042;11.192;2022-07-23T10:22:47;5.07;;;2.63;;
36827;SDS011;22766;48.042;11.192;2022-07-23T10:39:11;5.95;;;2.70;;
36827;SDS011;22766;48.042;11.192;2022-07-23T10:41:43;4.53;;;2.72;;
36827;SDS011;22766;48.042;11.192;2022-07-23T10:46:56;5.75;;;2.60;;
36827;SDS011;22766;48.042;11.192;2022-07-23T10:49:31;6.67;;;3.00;;
36827;SDS011;22766;48.042;11.192;2022-07-23T10:52:18;5.95;;;2.60;;
36827;SDS011;22766;48.042;11.192;2022-07-23T10:57:27;5.30;;;3.10;;
36827;SDS011;22766;48.042;11.192;2022-07-23T11:02:27;5.13;;;3.20;;
36827;SDS011;22766;48.042;11.192;2022-07-23T11:04:59;4.60;;;2.80;;
36827;SDS011;22766;48.042;11.192;2022-07-23T11:31:52;4.85;;;2.63;;
36827;SDS011;22766;48.042;11.192;2022-07-23T11:34:32;3.60;;;2.70;;
36827;SDS011;22766;48.042;11.192;2022-07-23T11:37:00;5.68;;;2.80;;
36827;SDS011;22766;48.042;11.192;2022-07-23T11:39:29;4.68;;;3.15;;
36827;SDS011;22766;48.042;11.192;2022-07-23T11:41:57;4.22;;;3.00;;
36827;SDS011;22766;48.042;11.192;2022-07-23T11:44:34;5.85;;;2.95;;
36827;SDS011;22766;48.042;11.192;2022-07-23T11:47:05;5.30;;;2.65;;
36827;SDS011;22766;48.042;11.192;2022-07-23T11:49:34;3.65;;;2.40;;
36827;SDS011;22766;48.042;11.192;2022-07-23T11:52:11;4.70;;;2.47;;
36827;SDS011;22766;48.042;11.192;2022-07-23T11:54:57;3.47;;;2.45;;
36827;SDS011;22766;48.042;11.192;2022-07-23T11:57:25;5.32;;;3.20;;
36827;SDS011;22766;48.042;11.192;2022-07-23T12:02:44;3.80;;;2.80;;
36827;SDS011;22766;48.042;11.192;2022-07-23T12:05:17;4.45;;;2.53;;
36827;SDS011;22766;48.042;11.192;2022-07-23T12:07:46;4.75;;;2.50;;
36827;SDS011;22766;48.042;11.192;2022-07-23T12:10:18;4.80;;;2.85;;
36827;SDS011;22766;48.042;11.192;2022-07-23T12:12:56;4.25;;;2.53;;
36827;SDS011;22766;48.042;11.192;2022-07-23T12:17:52;3.83;;;2.60;;
36827;SDS011;22766;48.042;11.192;2022-07-23T12:20:24;4.00;;;2.58;;
36827;SDS011;22766;48.042;11.192;2022-07-23T12:22:55;4.30;;;2.65;;
36827;SDS011;22766;48.042;11.192;2022-07-23T12:25:24;4.68;;;3.10;;
36827;SDS011;22766;48.042;11.192;2022-07-23T12:33:05;5.72;;;3.45;;
36827;SDS011;22766;48.042;11.192;2022-07-23T12:38:05;4.72;;;2.35;;
36827;SDS011;22766;48.042;11.192;2022-07-23T12:40:35;5.45;;;2.70;;
36827;SDS011;22766;48.042;11.192;2022-07-23T12:48:28;4.28;;;2.67;;
36827;SDS011;22766;48.042;11.192;2022-07-23T12:51:07;5.25;;;2.58;;
36827;SDS011;22766;48.042;11.192;2022-07-23T12:56:17;3.53;;;2.72;;
36827;SDS011;22766;48.042;11.192;2022-07-23T13:01:36;5.45;;;2.95;;
36827;SDS011;22766;48.042;11.192;2022-07-23T13:06:48;4.72;;;2.88;;
36827;SDS011;22766;48.042;11.192;2022-07-23T13:09:38;5.65;;;2.90;;
36827;SDS011;22766;48.042;11.192;2022-07-23T13:12:08;3.78;;;2.00;;
36827;SDS011;22766;48.042;11.192;2022-07-23T13:14:37;5.13;;;2.47;;
36827;SDS011;22766;48.042;11.192;2022-07-23T13:17:04;4.40;;;2.55;;
36827;SDS011;22766;48.042;11.192;2022-07-23T13:19:32;5.82;;;2.60;;
36827;SDS011;22766;48.042;11.192;2022-07-23T13:22:00;5.97;;;2.65;;
36827;SDS011;22766;48.042;11.192;2022-07-23T13:24:34;3.70;;;2.47;;
36827;SDS011;22766;48.042;11.192;2022-07-23T13:27:05;4.95;;;2.95;;
36827;SDS011;22766;48.042;11.192;2022-07-23T13:29:37;4.57;;;2.75;;
36827;SDS011;22766;48.042;11.192;2022-07-23T13:32:03;5.15;;;2.60;;
36827;SDS011;22766;48.042;11.192;2022-07-23T13:34:38;3.88;;;2.05;;
36827;SDS011;22766;48.042;11.192;2022-07-23T13:37:06;4.18;;;2.28;;
36827;SDS011;22766;48.042;11.192;2022-07-23T13:39:33;4.47;;;3.00;;
36827;SDS011;22766;48.042;11.192;2022-07-23T13:42:04;4.03;;;2.40;;
36827;SDS011;22766;48.042;11.192;2022-07-23T13:44:33;3.60;;;2.28;;
36827;SDS011;22766;48.042;11.192;2022-07-23T13:47:01;4.25;;;2.80;;
36827;SDS011;22766;48.042;11.192;2022-07-23T13:49:28;5.60;;;2.80;;
36827;SDS011;22766;48.042;11.192;2022-07-23T13:51:55;6.90;;;3.70;;
36827;SDS011;22766;48.042;11.192;2022-07-23T13:54:23;12.52;;;4.55;;
36827;SDS011;22766;48.042;11.192;2022-07-23T13:56:50;13.00;;;5.88;;
36827;SDS011;22766;48.042;11.192;2022-07-23T13:59:18;4.45;;;3.08;;
36827;SDS011;22766;48.042;11.192;2022-07-23T14:01:44;6.82;;;3.40;;
36827;SDS011;22766;48.042;11.192;2022-07-23T14:04:31;6.15;;;3.20;;
36827;SDS011;22766;48.042;11.192;2022-07-23T14:06:59;6.55;;;3.20;;
36827;SDS011;22766;48.042;11.192;2022-07-23T14:09:26;5.93;;;3.03;;
36827;SDS011;22766;48.042;11.192;2022-07-23T14:11:53;5.20;;;3.30;;
36827;SDS011;22766;48.042;11.192;2022-07-23T14:14:20;5.53;;;3.53;;
36827;SDS011;22766;48.042;11.192;2022-07-23T14:16:47;7.00;;;3.58;;
36827;SDS011;22766;48.042;11.192;2022-07-23T14:19:15;3.95;;;3.00;;
36827;SDS011;22766;48.042;11.192;2022-07-23T14:21:42;4.63;;;3.10;;
36827;SDS011;22766;48.042;11.192;2022-07-23T14:24:10;4.80;;;3.47;;
36827;SDS011;22766;48.042;11.192;2022-07-23T14:26:36;3.67;;;2.70;;
36827;SDS011;22766;48.042;11.192;2022-07-23T14:29:03;6.45;;;3.15;;
36827;SDS011;22766;48.042;11.192;2022-07-23T14:31:30;4.50;;;3.20;;
36827;SDS011;22766;48.042;11.192;2022-07-23T14:33:57;4.65;;;3.20;;
36827;SDS011;22766;48.042;11.192;2022-07-23T14:36:25;6.15;;;4.10;;
36827;SDS011;22766;48.042;11.192;2022-07-23T14:38:53;4.65;;;3.00;;
36827;SDS011;22766;48.042;11.192;2022-07-23T14:41:22;4.97;;;3.17;;
36827;SDS011;22766;48.042;11.192;2022-07-23T14:43:53;4.18;;;2.78;;
36827;SDS011;22766;48.042;11.192;2022-07-23T14:46:20;5.00;;;3.05;;
36827;SDS011;22766;48.042;11.192;2022-07-23T14:48:47;5.65;;;3.10;;
36827;SDS011;22766;48.042;11.192;2022-07-23T14:51:13;5.28;;;3.40;;
36827;SDS011;22766;48.042;11.192;2022-07-23T14:53:40;4.55;;;3.03;;
36827;SDS011;22766;48.042;11.192;2022-07-23T14:56:07;4.25;;;3.22;;
36827;SDS011;22766;48.042;11.192;2022-07-23T14:58:33;4.47;;;3.28;;
36827;SDS011;22766;48.042;11.192;2022-07-23T15:01:03;7.70;;;3.50;;
36827;SDS011;22766;48.042;11.192;2022-07-23T15:03:30;4.22;;;2.95;;
36827;SDS011;22766;48.042;11.192;2022-07-23T15:06:08;6.28;;;2.80;;
36827;SDS011;22766;48.042;11.192;2022-07-23T15:08:35;4.90;;;3.25;;
36827;SDS011;22766;48.042;11.192;2022-07-23T15:11:01;4.95;;;3.35;;
36827;SDS011;22766;48.042;11.192;2022-07-23T15:13:28;6.47;;;3.75;;
36827;SDS011;22766;48.042;11.192;2022-07-23T15:15:57;4.63;;;3.28;;
36827;SDS011;22766;48.042;11.192;2022-07-23T15:18:24;5.80;;;3.38;;
36827;SDS011;22766;48.042;11.192;2022-07-23T15:20:50;4.40;;;3.33;;
36827;SDS011;22766;48.042;11.192;2022-07-23T15:23:18;5.18;;;3.22;;
36827;SDS011;22766;48.042;11.192;2022-07-23T15:25:45;6.55;;;3.47;;
36827;SDS011;22766;48.042;11.192;2022-07-23T15:33:16;4.45;;;3.05;;
36827;SDS011;22766;48.042;11.192;2022-07-23T15:35:46;4.18;;;2.92;;
36827;SDS011;22766;48.042;11.192;2022-07-23T15:38:13;4.88;;;3.30;;
36827;SDS011;22766;48.042;11.192;2022-07-23T15:40:48;5.20;;;4.03;;
36827;SDS011;22766;48.042;11.192;2022-07-23T15:43:15;6.38;;;4.00;;
36827;SDS011;22766;48.042;11.192;2022-07-23T15:45:43;5.57;;;3.38;;
36827;SDS011;22766;48.042;11.192;2022-07-23T15:48:10;5.35;;;3.40;;
36827;SDS011;22766;48.042;11.192;2022-07-23T15:50:38;4.63;;;3.15;;
36827;SDS011;22766;48.042;11.192;2022-07-23T15:53:11;6.40;;;3.35;;
36827;SDS011;22766;48.042;11.192;2022-07-23T15:55:41;6.28;;;3.38;;
36827;SDS011;22766;48.042;11.192;2022-07-23T15:58:12;5.32;;;3.47;;
36827;SDS011;22766;48.042;11.192;2022-07-23T16:00:39;5.68;;;3.88;;
36827;SDS011;22766;48.042;11.192;2022-07-23T16:03:08;6.93;;;3.60;;
36827;SDS011;22766;48.042;11.192;2022-07-23T16:05:35;7.30;;;3.72;;
36827;SDS011;22766;48.042;11.192;2022-07-23T16:08:03;4.15;;;3.25;;
36827;SDS011;22766;48.042;11.192;2022-07-23T16:10:30;4.78;;;3.28;;
36827;SDS011;22766;48.042;11.192;2022-07-23T16:12:57;4.47;;;3.35;;
36827;SDS011;22766;48.042;11.192;2022-07-23T16:15:24;7.80;;;3.65;;
36827;SDS011;22766;48.042;11.192;2022-07-23T16:17:51;7.05;;;3.88;;
36827;SDS011;22766;48.042;11.192;2022-07-23T16:20:19;4.35;;;3.22;;
36827;SDS011;22766;48.042;11.192;2022-07-23T16:22:46;7.63;;;3.55;;